Terminal Aerodrome Forecast
Issued by NWS Cleveland, OH

Home | Current Version | Previous Version | Text Only | Print | Product List | Glossary On
Versions: 1 2 3 4 5 6 7 8 9 10 11 12 13 14 15
000
FTUS41 KCLE 031122
TAFYNG
TAF
KYNG 031122Z 0312/0412 08006KT P6SM BKN250
     FM031800 11006KT P6SM SCT120 BKN250
     FM032200 08006KT P6SM VCSH BKN045 OVC120
     FM040100 04005KT 6SM -SHRA BR OVC030
     FM040600 04003KT 3SM BR BKN025 OVC100=

USA.gov is the U.S. government's official web portal to all federal, state and local government web resources and services.